createdAt,value
2018-11-12T00:01:20.340Z,89.85
2018-11-12T00:03:48.215Z,89.53
2018-11-12T00:06:15.155Z,89.48
2018-11-12T00:08:42.095Z,89.23
2018-11-12T00:11:09.031Z,89.83
2018-11-12T00:13:35.984Z,90.18
2018-11-12T00:16:02.927Z,90.77
2018-11-12T00:18:29.871Z,90.87
2018-11-12T00:20:56.820Z,91.03
2018-11-12T00:23:23.751Z,90.57
2018-11-12T00:25:50.718Z,90.68
2018-11-12T00:28:17.646Z,92.24
2018-11-12T00:30:44.589Z,91.07
2018-11-12T00:33:12.464Z,89.93
2018-11-12T00:35:39.427Z,90.19
2018-11-12T00:38:06.347Z,89.60
2018-11-12T00:40:33.301Z,89.97
2018-11-12T00:43:00.232Z,89.89
2018-11-12T00:45:27.181Z,90.39
2018-11-12T00:47:54.130Z,89.94
2018-11-12T00:50:21.987Z,89.67
2018-11-12T00:52:48.943Z,89.64
2018-11-12T00:55:16.174Z,90.04
2018-11-12T00:57:43.334Z,90.43
2018-11-12T01:00:13.662Z,91.05
2018-11-12T01:02:42.179Z,90.79
2018-11-12T01:05:10.130Z,91.47
2018-11-12T01:07:37.459Z,91.80
2018-11-12T01:10:06.360Z,91.97
2018-11-12T01:12:33.310Z,92.01
2018-11-12T01:15:00.251Z,93.06
2018-11-12T01:17:27.128Z,92.41
2018-11-12T01:19:54.035Z,91.62
2018-11-12T01:22:20.988Z,92.04
2018-11-12T01:24:47.957Z,92.56
2018-11-12T01:27:14.876Z,92.43
2018-11-12T01:29:41.816Z,93.09
2018-11-12T01:32:08.766Z,92.54
2018-11-12T01:34:35.762Z,91.98
2018-11-12T01:37:02.650Z,92.94
2018-11-12T01:39:29.595Z,92.87
2018-11-12T01:41:56.573Z,93.69
2018-11-12T01:44:23.483Z,92.54
2018-11-12T01:46:50.429Z,93.00
2018-11-12T01:49:17.278Z,93.47
2018-11-12T01:51:44.219Z,93.16
2018-11-12T01:54:11.171Z,93.19
2018-11-12T01:56:38.099Z,92.52
2018-11-12T01:59:05.050Z,89.78
2018-11-12T02:01:32.013Z,91.03
2018-11-12T02:03:58.987Z,90.54
2018-11-12T02:06:25.895Z,91.64
2018-11-12T02:08:52.917Z,91.89
2018-11-12T02:11:19.783Z,91.42
2018-11-12T02:13:46.771Z,91.37
2018-11-12T02:16:13.655Z,91.10
2018-11-12T02:18:40.603Z,90.51
2018-11-12T02:21:07.999Z,91.00
2018-11-12T02:23:35.034Z,90.55
2018-11-12T02:26:01.959Z,89.13
2018-11-12T02:28:28.902Z,90.50
2018-11-12T02:30:55.830Z,90.77
2018-11-12T02:33:22.728Z,92.52
2018-11-12T02:35:49.624Z,92.23
2018-11-12T02:38:16.580Z,92.25
2018-11-12T02:40:45.463Z,92.91
2018-11-12T02:43:12.415Z,91.54
2018-11-12T02:45:39.462Z,90.92
2018-11-12T02:48:06.403Z,90.99
2018-11-12T02:50:33.342Z,90.81
2018-11-12T02:53:00.292Z,91.29
2018-11-12T02:55:27.250Z,91.45
2018-11-12T02:57:54.182Z,91.70
2018-11-12T03:00:22.239Z,90.90
2018-11-12T03:02:49.226Z,91.18
2018-11-12T03:05:17.162Z,90.65
2018-11-12T03:07:44.482Z,90.04
2018-11-12T03:10:13.464Z,89.86
2018-11-12T03:12:40.450Z,90.89
2018-11-12T03:15:08.451Z,90.71
2018-11-12T03:17:35.364Z,90.67
2018-11-12T03:20:02.623Z,90.52
2018-11-12T03:22:29.583Z,90.62
2018-11-12T03:24:56.514Z,91.78
2018-11-12T03:27:23.453Z,90.92
2018-11-12T03:29:50.403Z,90.01
2018-11-12T03:32:17.355Z,89.59
2018-11-12T03:34:44.290Z,90.39
2018-11-12T03:37:11.231Z,90.40
2018-11-12T03:39:38.233Z,90.50
2018-11-12T03:42:05.120Z,90.51
2018-11-12T03:44:32.095Z,90.05
2018-11-12T03:46:59.016Z,90.38
2018-11-12T03:49:26.007Z,90.64
2018-11-12T03:51:52.923Z,89.78
2018-11-12T03:54:19.851Z,90.54
2018-11-12T03:56:46.795Z,90.73
2018-11-12T03:59:13.751Z,90.37
2018-11-12T04:01:45.382Z,91.08
2018-11-12T04:04:13.969Z,91.74
2018-11-12T04:06:41.037Z,92.17
2018-11-12T04:09:10.367Z,92.09
2018-11-12T04:11:37.343Z,91.25
2018-11-12T04:14:04.660Z,89.11
2018-11-12T04:16:31.556Z,89.10
2018-11-12T04:18:58.516Z,89.79
2018-11-12T04:21:25.455Z,90.26
2018-11-12T04:23:52.407Z,90.52
2018-11-12T04:26:19.347Z,90.83
2018-11-12T04:28:47.224Z,90.59
2018-11-12T04:31:14.198Z,90.61
2018-11-12T04:33:41.126Z,91.28
2018-11-12T04:36:08.047Z,90.81
2018-11-12T04:38:35.000Z,90.01
2018-11-12T04:41:02.102Z,91.44
2018-11-12T04:43:29.074Z,89.62
2018-11-12T04:45:56.039Z,88.01
2018-11-12T04:48:22.987Z,89.15
2018-11-12T04:50:49.931Z,89.73
2018-11-12T04:53:17.784Z,90.23
2018-11-12T04:55:45.675Z,91.16
2018-11-12T04:58:13.527Z,91.01
2018-11-12T05:00:40.375Z,90.69
2018-11-12T05:03:07.306Z,90.03
2018-11-12T05:05:34.300Z,89.87
2018-11-12T05:08:01.224Z,89.88
2018-11-12T05:10:28.159Z,87.96
2018-11-12T05:12:56.067Z,89.31
2018-11-12T05:15:23.725Z,89.80
2018-11-12T05:17:50.680Z,89.37
2018-11-12T05:20:23.819Z,89.09
2018-11-12T05:22:50.757Z,89.58
2018-11-12T05:25:17.696Z,90.21
2018-11-12T05:27:44.660Z,90.68
2018-11-12T05:30:13.939Z,91.12
2018-11-12T05:32:40.933Z,91.86
2018-11-12T05:35:07.835Z,90.73
2018-11-12T05:37:35.108Z,92.23
2018-11-12T05:40:01.974Z,91.70
2018-11-12T05:42:28.868Z,92.18
2018-11-12T05:44:55.899Z,89.73
2018-11-12T05:47:22.761Z,88.04
2018-11-12T05:49:49.759Z,90.33
2018-11-12T05:52:16.658Z,90.52
2018-11-12T05:54:43.630Z,91.61
2018-11-12T05:57:10.557Z,91.92
2018-11-12T05:59:37.499Z,93.12
2018-11-12T06:02:04.551Z,91.72
2018-11-12T06:04:31.474Z,91.31
2018-11-12T06:06:58.495Z,91.12
2018-11-12T06:09:25.366Z,91.30
2018-11-12T06:11:52.350Z,91.86
2018-11-12T06:14:19.263Z,91.56
2018-11-12T06:16:46.111Z,88.97
2018-11-12T06:19:13.050Z,89.31
2018-11-12T06:21:39.898Z,90.04
2018-11-12T06:24:06.827Z,89.88
2018-11-12T06:26:33.846Z,90.05
2018-11-12T06:29:00.717Z,90.35
2018-11-12T06:31:27.664Z,90.76
2018-11-12T06:33:54.610Z,90.59
2018-11-12T06:36:21.567Z,91.39
2018-11-12T06:38:48.511Z,91.23
2018-11-12T06:41:15.439Z,90.97
2018-11-12T06:43:42.407Z,91.44
2018-11-12T06:46:09.327Z,91.81
2018-11-12T06:48:36.299Z,90.50
2018-11-12T06:51:03.233Z,90.71
2018-11-12T06:53:30.135Z,91.21
2018-11-12T06:55:56.922Z,91.05
2018-11-12T06:58:23.842Z,88.96
2018-11-12T07:00:50.860Z,89.38
2018-11-12T07:03:17.791Z,90.70
2018-11-12T07:05:44.694Z,90.46
2018-11-12T07:08:11.637Z,91.19
2018-11-12T07:10:39.546Z,90.89
2018-11-12T07:13:06.463Z,91.47
2018-11-12T07:15:33.319Z,90.86
2018-11-12T07:18:00.227Z,90.93
2018-11-12T07:20:27.835Z,89.29
2018-11-12T07:22:54.743Z,90.12
2018-11-12T07:25:23.478Z,90.63
2018-11-12T07:27:51.194Z,89.62
2018-11-12T07:30:21.380Z,89.83
2018-11-12T07:32:49.080Z,89.27
2018-11-12T07:35:16.728Z,89.62
2018-11-12T07:37:44.736Z,89.37
2018-11-12T07:40:12.352Z,86.99
2018-11-12T07:42:39.812Z,87.92
2018-11-12T07:45:09.951Z,88.48
2018-11-12T07:47:36.923Z,88.57
2018-11-12T07:50:05.908Z,88.74
2018-11-12T07:52:32.811Z,87.09
2018-11-12T07:54:59.763Z,88.27
2018-11-12T07:57:26.722Z,87.54
2018-11-12T07:59:53.639Z,86.76
2018-11-12T08:02:21.483Z,87.15
2018-11-12T08:04:48.428Z,87.30
2018-11-12T08:07:16.339Z,86.51
2018-11-12T08:09:43.385Z,86.49
2018-11-12T08:12:10.130Z,85.60
2018-11-12T08:14:37.213Z,85.46
2018-11-12T08:17:04.043Z,86.20
2018-11-12T08:19:30.959Z,85.33
2018-11-12T08:21:57.896Z,85.32
2018-11-12T08:24:24.849Z,85.22
2018-11-12T08:26:51.719Z,85.65
2018-11-12T08:29:18.627Z,85.47
2018-11-12T08:31:45.642Z,84.78
2018-11-12T08:34:12.587Z,84.59
2018-11-12T08:36:39.653Z,84.15
2018-11-12T08:39:06.724Z,84.54
2018-11-12T08:41:33.519Z,84.76
2018-11-12T08:44:00.367Z,83.10
2018-11-12T08:46:27.211Z,83.93
2018-11-12T08:48:54.100Z,82.87
2018-11-12T08:51:21.919Z,82.49
2018-11-12T08:53:48.862Z,83.17
2018-11-12T08:56:15.706Z,82.94
2018-11-12T08:58:42.543Z,82.76
2018-11-12T09:01:09.511Z,82.40
2018-11-12T09:03:36.434Z,82.77
2018-11-12T09:06:03.300Z,81.92
2018-11-12T09:08:30.145Z,81.42
2018-11-12T09:10:57.062Z,81.30
2018-11-12T09:13:23.914Z,82.06
2018-11-12T09:15:50.959Z,80.29
2018-11-12T09:18:17.738Z,80.58
2018-11-12T09:20:44.643Z,80.98
2018-11-12T09:23:11.491Z,81.85
2018-11-12T09:25:38.434Z,81.79
2018-11-12T09:28:05.370Z,81.19
2018-11-12T09:30:32.227Z,81.02
2018-11-12T09:32:59.154Z,80.71
2018-11-12T09:35:29.082Z,80.74
2018-11-12T09:37:56.716Z,80.64
2018-11-12T09:40:25.890Z,81.21
2018-11-12T09:42:52.791Z,79.72
2018-11-12T09:45:19.639Z,78.58
2018-11-12T09:47:46.822Z,79.33
2018-11-12T09:50:14.840Z,78.06
2018-11-12T09:52:43.114Z,77.61
2018-11-12T09:55:10.920Z,77.70
2018-11-12T09:57:38.742Z,77.66
2018-11-12T10:00:07.796Z,76.81
2018-11-12T10:02:35.449Z,77.22
2018-11-12T10:05:03.038Z,76.76
2018-11-12T10:07:30.035Z,77.17
2018-11-12T10:09:57.101Z,77.05
2018-11-12T10:12:23.618Z,76.30
2018-11-12T10:14:51.038Z,76.68
2018-11-12T10:17:20.335Z,77.06
2018-11-12T10:19:42.761Z,77.98
2018-11-12T10:22:09.647Z,79.33
2018-11-12T10:24:37.087Z,78.73
2018-11-12T10:27:04.490Z,79.06
2018-11-12T10:29:31.403Z,79.28
2018-11-12T10:31:58.333Z,78.17
2018-11-12T10:34:25.287Z,77.96
2018-11-12T10:36:52.239Z,78.13
2018-11-12T10:39:19.163Z,78.35
2018-11-12T10:41:47.027Z,77.52
2018-11-12T10:44:13.884Z,77.88
2018-11-12T10:46:40.818Z,77.77
2018-11-12T10:49:07.754Z,79.11
2018-11-12T10:51:34.605Z,78.36
2018-11-12T10:54:01.646Z,78.76
2018-11-12T10:56:28.402Z,78.22
2018-11-12T10:58:55.343Z,78.74
2018-11-12T11:01:28.030Z,77.44
2018-11-12T11:04:00.694Z,78.38
2018-11-12T11:06:27.563Z,77.50
2018-11-12T11:08:54.414Z,78.04
2018-11-12T11:11:21.284Z,77.64
2018-11-12T11:13:48.210Z,77.30
2018-11-12T11:16:15.110Z,78.03
2018-11-12T11:18:41.974Z,78.45
2018-11-12T11:21:08.953Z,77.86
2018-11-12T11:23:35.862Z,77.28
2018-11-12T11:26:02.783Z,78.62
2018-11-12T11:28:29.638Z,77.89
2018-11-12T11:30:56.527Z,77.68
2018-11-12T11:33:23.422Z,78.09
2018-11-12T11:35:50.367Z,78.47
2018-11-12T11:38:17.302Z,77.47
2018-11-12T11:40:44.219Z,77.50
2018-11-12T11:43:10.998Z,78.03
2018-11-12T11:45:37.942Z,78.34
2018-11-12T11:48:05.097Z,77.99
2018-11-12T11:50:31.888Z,77.14
2018-11-12T11:52:58.786Z,78.55
2018-11-12T11:55:25.710Z,78.43
2018-11-12T11:57:53.786Z,77.99
2018-11-12T12:00:28.598Z,77.86
2018-11-12T12:02:56.559Z,76.73
2018-11-12T12:05:23.839Z,77.13
2018-11-12T12:07:51.505Z,77.17
2018-11-12T12:10:18.487Z,76.67
2018-11-12T12:12:46.409Z,76.67
2018-11-12T12:15:15.439Z,77.43
2018-11-12T12:17:42.356Z,77.46
2018-11-12T12:20:11.434Z,76.84
2018-11-12T12:22:38.426Z,77.77
2018-11-12T12:25:06.258Z,77.65
2018-11-12T12:27:33.123Z,76.75
2018-11-12T12:30:00.064Z,75.35
2018-11-12T12:32:26.997Z,75.86
2018-11-12T12:34:53.939Z,76.52
2018-11-12T12:37:20.779Z,76.88
2018-11-12T12:39:47.749Z,75.86
2018-11-12T12:42:14.676Z,76.70
2018-11-12T12:44:41.622Z,75.89
2018-11-12T12:47:08.579Z,76.42
2018-11-12T12:49:35.678Z,76.11
2018-11-12T12:52:02.956Z,75.41
2018-11-12T12:54:29.823Z,75.79
2018-11-12T12:56:56.750Z,75.06
2018-11-12T12:59:23.723Z,75.66
2018-11-12T13:01:50.946Z,75.26
2018-11-12T13:04:17.683Z,75.32
2018-11-12T13:06:44.620Z,75.34
2018-11-12T13:09:11.467Z,75.37
2018-11-12T13:11:38.551Z,75.36
2018-11-12T13:14:05.830Z,75.87
2018-11-12T13:16:32.623Z,75.38
2018-11-12T13:18:59.558Z,76.83
2018-11-12T13:21:26.533Z,75.61
2018-11-12T13:23:53.454Z,76.23
2018-11-12T13:26:20.473Z,75.57
2018-11-12T13:28:47.254Z,75.40
2018-11-12T13:31:14.180Z,75.85
2018-11-12T13:33:41.123Z,75.86
2018-11-12T13:36:08.071Z,75.56
2018-11-12T13:38:35.018Z,76.50
2018-11-12T13:41:01.904Z,76.21
2018-11-12T13:43:28.760Z,76.46
2018-11-12T13:45:55.659Z,75.80
2018-11-12T13:48:22.590Z,73.68
2018-11-12T13:50:49.534Z,75.31
2018-11-12T13:53:16.476Z,75.30
2018-11-12T13:55:43.503Z,75.96
2018-11-12T13:58:10.380Z,76.19
2018-11-12T14:00:37.379Z,75.43
2018-11-12T14:03:04.427Z,75.89
2018-11-12T14:05:31.313Z,76.13
2018-11-12T14:07:58.254Z,76.26
2018-11-12T14:10:26.734Z,76.56
2018-11-12T14:12:54.803Z,75.51
2018-11-12T14:15:22.359Z,75.05
2018-11-12T14:17:49.663Z,75.83
2018-11-12T14:20:16.613Z,75.45
2018-11-12T14:22:43.519Z,75.44
2018-11-12T14:25:11.932Z,74.43
2018-11-12T14:27:38.852Z,76.41
2018-11-12T14:30:07.247Z,77.04
2018-11-12T14:32:37.424Z,77.77
2018-11-12T14:35:17.878Z,77.18
2018-11-12T14:37:54.072Z,77.48
2018-11-12T14:40:22.089Z,76.72
2018-11-12T14:42:56.228Z,76.49
2018-11-12T14:45:27.615Z,75.08
2018-11-12T14:48:02.981Z,74.26
2018-11-12T14:53:28.332Z,74.16
2018-11-12T14:55:55.267Z,73.85
2018-11-12T14:58:23.124Z,73.73
2018-11-12T15:00:49.983Z,73.35
2018-11-12T15:03:17.943Z,76.53
2018-11-12T15:05:44.913Z,79.21
2018-11-12T15:08:11.847Z,78.97
2018-11-12T15:10:38.780Z,78.97
2018-11-12T15:13:05.712Z,79.07
2018-11-12T15:15:32.659Z,77.32
2018-11-12T15:18:00.463Z,78.48
2018-11-12T15:20:27.362Z,77.96
2018-11-12T15:22:54.357Z,76.24
2018-11-12T15:25:22.583Z,78.89
2018-11-12T15:27:49.531Z,78.58
2018-11-12T15:30:19.502Z,79.77
2018-11-12T15:32:47.449Z,78.98
2018-11-12T15:35:14.967Z,76.60
2018-11-12T15:37:42.727Z,79.81
2018-11-12T15:40:09.888Z,81.12
2018-11-12T15:42:37.499Z,79.35
2018-11-12T15:45:06.415Z,81.73
2018-11-12T15:47:33.312Z,80.03
2018-11-12T15:50:00.230Z,82.14
2018-11-12T15:52:27.132Z,81.82
2018-11-12T15:54:54.083Z,81.72
2018-11-12T15:57:21.081Z,82.29
2018-11-12T15:59:47.926Z,82.29
2018-11-12T16:02:15.827Z,82.48
2018-11-12T16:04:42.715Z,82.76
2018-11-12T16:07:09.680Z,82.05
2018-11-12T16:09:36.560Z,79.63
2018-11-12T16:12:03.768Z,81.71
2018-11-12T16:14:30.594Z,79.24
2018-11-12T16:16:57.555Z,80.82
2018-11-12T16:19:24.607Z,82.59
2018-11-12T16:21:51.455Z,81.34
2018-11-12T16:24:18.375Z,82.90
2018-11-12T16:26:45.389Z,84.04
2018-11-12T16:29:12.192Z,85.15
2018-11-12T16:31:39.115Z,84.82
2018-11-12T16:34:06.067Z,84.19
2018-11-12T16:36:33.057Z,85.08
2018-11-12T16:38:59.965Z,85.48
2018-11-12T16:41:27.155Z,86.16
2018-11-12T16:43:56.091Z,86.05
2018-11-12T16:46:23.175Z,86.25
2018-11-12T16:48:50.088Z,86.42
2018-11-12T16:51:17.958Z,87.43
2018-11-12T16:53:45.768Z,86.72
2018-11-12T16:56:16.708Z,87.55
2018-11-12T16:58:43.594Z,84.36
2018-11-12T17:01:10.513Z,84.62
2018-11-12T17:03:37.383Z,86.73
2018-11-12T17:06:04.284Z,86.84
2018-11-12T17:08:31.182Z,85.98
2018-11-12T17:10:58.075Z,85.35
2018-11-12T17:13:24.936Z,87.72
2018-11-12T17:15:51.833Z,92.12
2018-11-12T17:18:18.756Z,92.20
2018-11-12T17:20:45.644Z,91.50
2018-11-12T17:23:12.656Z,92.41
2018-11-12T17:25:39.363Z,92.26
2018-11-12T17:28:06.264Z,93.33
2018-11-12T17:30:33.175Z,93.24
2018-11-12T17:33:00.129Z,91.87
2018-11-12T17:35:27.119Z,90.21
2018-11-12T17:37:54.014Z,89.98
2018-11-12T17:40:23.700Z,90.42
2018-11-12T17:42:51.567Z,89.81
2018-11-12T17:45:20.762Z,90.28
2018-11-12T17:47:48.946Z,89.06
2018-11-12T17:50:15.902Z,88.63
2018-11-12T17:52:42.747Z,89.18
2018-11-12T17:55:10.333Z,88.24
2018-11-12T17:57:37.403Z,88.30
2018-11-12T18:00:08.913Z,87.97
2018-11-12T18:02:35.860Z,85.82
2018-11-12T18:05:03.431Z,88.15
2018-11-12T18:07:30.518Z,88.25
2018-11-12T18:09:57.301Z,88.41
2018-11-12T18:12:24.236Z,88.74
2018-11-12T18:14:51.120Z,88.09
2018-11-12T18:17:17.971Z,89.27
2018-11-12T18:19:45.914Z,88.34
2018-11-12T18:22:12.782Z,89.81
2018-11-12T18:24:39.656Z,89.39
2018-11-12T18:27:06.545Z,87.34
2018-11-12T18:29:33.403Z,89.29
2018-11-12T18:32:00.264Z,89.74
2018-11-12T18:34:27.154Z,88.46
2018-11-12T18:36:53.994Z,86.63
2018-11-12T18:39:20.843Z,88.05
2018-11-12T18:41:47.707Z,87.18
2018-11-12T18:44:14.550Z,88.50
2018-11-12T18:46:41.503Z,89.73
2018-11-12T18:49:08.423Z,87.76
2018-11-12T18:51:35.350Z,87.01
2018-11-12T18:54:02.265Z,88.82
2018-11-12T18:56:29.202Z,89.01
2018-11-12T18:58:56.128Z,88.42
2018-11-12T19:01:23.059Z,89.30
2018-11-12T19:03:49.996Z,89.08
2018-11-12T19:06:16.976Z,89.77
2018-11-12T19:08:43.922Z,89.17
2018-11-12T19:11:10.860Z,88.59
2018-11-12T19:13:37.854Z,87.82
2018-11-12T19:16:05.550Z,89.09
2018-11-12T19:18:32.484Z,88.52
2018-11-12T19:20:59.391Z,88.70
2018-11-12T19:23:26.323Z,89.85
2018-11-12T19:25:53.238Z,89.56
2018-11-12T19:28:20.173Z,87.60
2018-11-12T19:30:47.114Z,89.58
2018-11-12T19:33:14.023Z,88.65
2018-11-12T19:35:40.938Z,90.47
2018-11-12T19:38:07.889Z,89.83
2018-11-12T19:40:35.003Z,90.39
2018-11-12T19:43:01.840Z,89.81
2018-11-12T19:45:28.735Z,90.36
2018-11-12T19:47:55.660Z,90.71
2018-11-12T19:50:23.797Z,90.07
2018-11-12T19:52:53.185Z,89.78
2018-11-12T19:55:20.112Z,91.32
2018-11-12T19:57:47.481Z,90.19
2018-11-12T20:00:16.989Z,90.68
2018-11-12T20:02:45.119Z,91.39
2018-11-12T20:05:12.131Z,91.94
2018-11-12T20:07:39.709Z,88.76
2018-11-12T20:10:09.325Z,91.04
2018-11-12T20:12:36.291Z,92.61
2018-11-12T20:15:03.283Z,91.79
2018-11-12T20:17:30.187Z,92.27
2018-11-12T20:19:57.108Z,93.32
2018-11-12T20:22:24.058Z,93.39
2018-11-12T20:24:51.184Z,92.99
2018-11-12T20:27:18.378Z,91.31
2018-11-12T20:29:45.290Z,89.93
2018-11-12T20:32:12.241Z,90.48
2018-11-12T20:34:39.175Z,90.11
2018-11-12T20:37:06.086Z,92.44
2018-11-12T20:39:33.004Z,91.68
2018-11-12T20:41:59.925Z,90.53
2018-11-12T20:44:26.859Z,91.14
2018-11-12T20:46:53.759Z,91.30
2018-11-12T20:49:20.669Z,91.70
2018-11-12T20:51:47.660Z,92.16
2018-11-12T20:54:14.620Z,91.82
2018-11-12T20:56:41.536Z,92.35
2018-11-12T20:59:08.468Z,91.86
2018-11-12T21:01:35.403Z,91.16
2018-11-12T21:04:02.324Z,90.67
2018-11-12T21:06:29.269Z,91.28
2018-11-12T21:08:56.201Z,91.98
2018-11-12T21:11:23.167Z,92.12
2018-11-12T21:13:50.081Z,92.75
2018-11-12T21:16:17.007Z,89.81
2018-11-12T21:18:43.929Z,88.45
2018-11-12T21:21:10.861Z,90.95
2018-11-12T21:23:37.812Z,91.77
2018-11-12T21:26:04.697Z,91.85
2018-11-12T21:28:31.646Z,92.16
2018-11-12T21:30:58.586Z,91.87
2018-11-12T21:33:25.493Z,89.66
2018-11-12T21:35:52.397Z,92.36
2018-11-12T21:38:19.330Z,91.72
2018-11-12T21:40:46.259Z,91.71
2018-11-12T21:43:13.268Z,92.00
2018-11-12T21:45:40.108Z,88.66
2018-11-12T21:48:07.033Z,90.88
2018-11-12T21:50:33.975Z,90.91
2018-11-12T21:53:00.873Z,91.60
2018-11-12T21:55:27.821Z,90.80
2018-11-12T21:57:54.746Z,89.96
2018-11-12T22:00:25.696Z,90.87
2018-11-12T22:02:56.424Z,91.48
2018-11-12T22:05:23.567Z,90.79
2018-11-12T22:07:50.495Z,91.06
2018-11-12T22:10:17.875Z,91.91
2018-11-12T22:12:46.041Z,91.60
2018-11-12T22:15:13.002Z,91.82
2018-11-12T22:17:39.913Z,90.84
2018-11-12T22:20:08.202Z,91.11
2018-11-12T22:22:35.203Z,91.52
2018-11-12T22:25:02.135Z,91.13
2018-11-12T22:27:29.203Z,90.29
2018-11-12T22:29:56.112Z,88.32
2018-11-12T22:32:23.045Z,86.79
2018-11-12T22:34:49.967Z,85.54
2018-11-12T22:37:16.909Z,88.06
2018-11-12T22:39:43.837Z,90.28
2018-11-12T22:42:10.771Z,89.91
2018-11-12T22:44:37.694Z,90.55
2018-11-12T22:47:04.626Z,90.40
2018-11-12T22:49:31.558Z,90.36
2018-11-12T22:51:58.485Z,90.45
2018-11-12T22:54:25.434Z,89.74
2018-11-12T22:56:52.347Z,92.28
2018-11-12T22:59:19.265Z,93.19
2018-11-12T23:01:46.195Z,93.55
2018-11-12T23:04:13.126Z,93.36
2018-11-12T23:06:40.060Z,94.49
2018-11-12T23:09:14.989Z,93.77
2018-11-12T23:11:41.955Z,93.63
2018-11-12T23:14:08.910Z,92.06
2018-11-12T23:16:35.859Z,91.81
2018-11-12T23:19:02.775Z,93.01
2018-11-12T23:21:29.702Z,91.20
2018-11-12T23:23:56.621Z,93.04
2018-11-12T23:26:23.527Z,92.18
2018-11-12T23:28:50.464Z,91.29
2018-11-12T23:31:17.389Z,93.15
2018-11-12T23:33:44.313Z,92.98
2018-11-12T23:36:11.261Z,91.17
2018-11-12T23:38:38.217Z,94.74
2018-11-12T23:41:05.242Z,95.25
2018-11-12T23:43:32.153Z,95.76
2018-11-12T23:45:59.097Z,97.04
2018-11-12T23:48:26.021Z,95.75
2018-11-12T23:50:52.929Z,95.75
2018-11-12T23:53:19.843Z,95.16
2018-11-12T23:55:46.762Z,94.69
2018-11-12T23:58:13.689Z,95.24
